Time;durP1;ratioP1;P1;durP2;ratioP2;P2;SDS_P1;SDS_P2;PMS_P1;PMS_P2;Temp;Humidity;BMP_temperature;BMP_pressure;BME280_temperature;BME280_humidity;BME280_pressure;Samples;Min_cycle;Max_cycle;Signal;HPM_P1;HPM_P2
2024/04/09 00:02:15;;;;;;;7.00;2.95;;;;;;;10.22;89.44;100506.78;5392472;26;20357;-78
2024/04/09 00:04:40;;;;;;;5.38;3.25;;;;;;;9.77;90.05;100476.44;5403740;26;20406;-79
2024/04/09 00:07:05;;;;;;;6.00;3.13;;;;;;;10.07;89.18;100471.53;5379504;26;19997;-80
2024/04/09 00:09:31;;;;;;;4.47;2.78;;;;;;;9.65;92.46;100482.38;5393860;26;20010;-80
2024/04/09 00:11:58;;;;;;;5.78;3.00;;;;;;;9.23;95.35;100471.03;5383995;26;20497;-79
2024/04/09 00:14:24;;;;;;;7.35;3.40;;;;;;;9.15;98.30;100491.63;5402853;26;19992;-79
2024/04/09 00:16:53;;;;;;;5.45;3.13;;;;;;;9.63;93.73;100487.06;5402405;26;20010;-79
2024/04/09 00:19:23;;;;;;;5.18;3.22;;;;;;;8.91;98.48;100480.50;5415362;26;19991;-80
2024/04/09 00:21:52;;;;;;;5.75;3.17;;;;;;;9.70;93.43;100491.59;5384507;26;20001;-80
2024/04/09 00:24:17;;;;;;;5.43;3.05;;;;;;;9.14;96.56;100474.88;5379722;26;20062;-80
2024/04/09 00:26:43;;;;;;;4.85;3.38;;;;;;;9.72;92.98;100489.53;5379574;26;20001;-79
2024/04/09 00:29:10;;;;;;;6.18;3.55;;;;;;;9.57;91.38;100455.13;5379650;26;20054;-80
2024/04/09 00:31:36;;;;;;;6.82;3.38;;;;;;;9.64;92.87;100478.06;5384089;26;19996;-80
2024/04/09 00:34:02;;;;;;;4.22;3.20;;;;;;;9.62;91.04;100474.78;5379443;26;20007;-79
2024/04/09 00:36:29;;;;;;;7.32;3.30;;;;;;;8.97;94.77;100474.41;5379540;26;20000;-79
2024/04/09 00:38:56;;;;;;;5.28;3.38;;;;;;;8.52;99.99;100475.78;5377647;26;20066;-80
2024/04/09 00:41:22;;;;;;;6.43;3.95;;;;;;;7.88;99.99;100471.41;5384498;26;19996;-79
2024/04/09 00:43:47;;;;;;;7.28;4.97;;;;;;;7.89;100.00;100476.53;5379444;26;19992;-80
2024/04/09 00:46:14;;;;;;;6.78;4.10;;;;;;;7.61;100.00;100429.50;5379448;26;19996;-79
2024/04/09 00:48:44;;;;;;;7.32;3.60;;;;;;;7.90;100.00;100454.25;5398831;26;20049;-80
2024/04/09 00:51:13;;;;;;;6.53;4.50;;;;;;;7.77;100.00;100465.59;5378924;26;20008;-79
2024/04/09 00:53:41;;;;;;;7.80;5.00;;;;;;;7.49;100.00;100462.88;5377846;26;20037;-80
2024/04/09 00:56:08;;;;;;;8.10;5.03;;;;;;;7.41;100.00;100453.19;5379397;26;20508;-79
2024/04/09 00:58:34;;;;;;;6.10;3.95;;;;;;;7.09;100.00;100435.94;5377941;26;20000;-79
2024/04/09 01:01:01;;;;;;;7.72;4.68;;;;;;;7.11;100.00;100449.81;5384024;26;20017;-79
2024/04/09 01:03:27;;;;;;;7.32;5.45;;;;;;;7.72;100.00;100467.16;5414834;26;20004;-79
2024/04/09 01:05:53;;;;;;;7.65;5.43;;;;;;;7.87;100.00;100454.66;5412522;26;20409;-79
2024/04/09 01:08:19;;;;;;;9.40;5.28;;;;;;;7.34;100.00;100459.44;5389643;26;20453;-79
2024/04/09 01:10:44;;;;;;;8.57;5.22;;;;;;;7.12;100.00;100455.94;5383312;26;20071;-80
2024/04/09 01:13:09;;;;;;;7.45;5.45;;;;;;;7.35;100.00;100450.47;5404167;26;20003;-80
2024/04/09 01:15:36;;;;;;;8.07;4.90;;;;;;;8.03;100.00;100449.06;5379159;26;20014;-79
2024/04/09 01:18:03;;;;;;;8.25;5.90;;;;;;;7.59;100.00;100478.47;5383985;26;20020;-79
2024/04/09 01:20:28;;;;;;;7.15;5.18;;;;;;;7.94;100.00;100478.59;5385855;26;20000;-79
2024/04/09 01:22:54;;;;;;;6.60;5.00;;;;;;;7.90;100.00;100467.53;5383742;26;20156;-79
2024/04/09 01:25:20;;;;;;;6.68;4.35;;;;;;;7.38;100.00;100455.41;5379002;26;20028;-79
2024/04/09 01:27:46;;;;;;;8.38;4.50;;;;;;;7.94;100.00;100466.13;5375658;26;20000;-80
2024/04/09 01:30:13;;;;;;;8.35;5.07;;;;;;;8.05;100.00;100478.91;5378863;26;20000;-80
2024/04/09 01:32:39;;;;;;;7.70;4.97;;;;;;;7.11;100.00;100420.66;5378434;26;20069;-79
2024/04/09 01:35:06;;;;;;;7.15;4.60;;;;;;;7.13;100.00;100457.56;5378749;26;20530;-79
2024/04/09 01:37:32;;;;;;;7.25;5.55;;;;;;;8.21;100.00;100461.88;5378594;26;20020;-79
2024/04/09 01:39:58;;;;;;;6.10;4.32;;;;;;;7.47;100.00;100459.56;5405878;26;20341;-80
2024/04/09 01:42:23;;;;;;;8.18;4.75;;;;;;;8.12;99.75;100480.78;5385164;26;20027;-79
2024/04/09 01:44:49;;;;;;;6.85;4.70;;;;;;;8.28;96.54;100472.53;5387723;26;20000;-80
2024/04/09 01:47:14;;;;;;;6.50;4.57;;;;;;;8.45;93.59;100457.13;5412582;26;20014;-80
2024/04/09 01:49:40;;;;;;;7.50;4.40;;;;;;;8.32;93.83;100463.16;5404020;26;20019;-79
2024/04/09 01:52:06;;;;;;;7.18;4.32;;;;;;;7.98;96.65;100466.59;5378416;26;20019;-80
2024/04/09 01:54:32;;;;;;;5.85;4.13;;;;;;;7.21;100.00;100465.41;5378972;26;20004;-79
2024/04/09 01:56:57;;;;;;;10.65;4.30;;;;;;;7.18;100.00;100437.44;5378231;26;19996;-79
2024/04/09 01:59:23;;;;;;;7.45;4.30;;;;;;;7.60;100.00;100465.03;5398573;26;20003;-79
2024/04/09 02:01:48;;;;;;;10.93;4.63;;;;;;;8.18;97.26;100477.38;5396900;26;20070;-80
2024/04/09 02:04:14;;;;;;;6.82;4.38;;;;;;;7.41;100.00;100476.25;5378459;26;20333;-79
2024/04/09 02:06:41;;;;;;;7.45;4.70;;;;;;;7.61;100.00;100471.97;5378173;26;20348;-79
2024/04/09 02:09:06;;;;;;;7.05;4.90;;;;;;;7.56;100.00;100474.38;5378438;26;20004;-79
2024/04/09 02:11:32;;;;;;;7.80;4.32;;;;;;;7.83;97.38;100448.91;5378321;26;20008;-79
2024/04/09 02:13:57;;;;;;;7.97;4.00;;;;;;;7.57;100.00;100476.00;5413822;26;20007;-79
2024/04/09 02:16:23;;;;;;;7.30;4.40;;;;;;;7.40;100.00;100479.94;5411730;26;20014;-79
2024/04/09 02:18:49;;;;;;;8.52;4.30;;;;;;;7.60;100.00;100469.50;5394167;26;20408;-79
2024/04/09 02:21:20;;;;;;;7.00;4.38;;;;;;;7.34;100.00;100470.88;5380737;26;20042;-80
2024/04/09 02:23:51;;;;;;;6.05;3.97;;;;;;;6.90;100.00;100469.13;5373883;26;20015;-79
2024/04/09 02:26:17;;;;;;;5.38;3.50;;;;;;;6.88;100.00;100462.38;5376343;26;20012;-79
2024/04/09 02:28:43;;;;;;;7.18;4.55;;;;;;;7.40;100.00;100469.31;5381977;26;20077;-78
2024/04/09 02:31:09;;;;;;;6.82;3.88;;;;;;;6.99;100.00;100469.88;5411577;26;20004;-78
2024/04/09 02:33:34;;;;;;;7.00;4.10;;;;;;;7.28;100.00;100466.31;5376026;26;20011;-79
2024/04/09 02:36:06;;;;;;;5.47;3.80;;;;;;;7.50;99.58;100468.97;5385839;26;20020;-80
2024/04/09 02:38:37;;;;;;;5.43;3.65;;;;;;;7.50;100.00;100480.44;5403540;26;20744;-79
2024/04/09 02:41:06;;;;;;;6.78;3.72;;;;;;;7.18;100.00;100479.06;5383397;26;20008;-79
2024/04/09 02:43:33;;;;;;;7.85;4.15;;;;;;;6.90;100.00;100490.34;5384264;26;20004;-79
2024/04/09 02:45:59;;;;;;;7.35;3.97;;;;;;;6.74;100.00;100485.22;5381360;26;20001;-79
2024/04/09 02:48:25;;;;;;;8.10;4.45;;;;;;;6.59;100.00;100466.69;5381313;26;20004;-79
2024/04/09 02:50:55;;;;;;;5.75;3.85;;;;;;;6.86;100.00;100477.66;5380642;26;20004;-79
2024/04/09 02:53:21;;;;;;;7.30;4.65;;;;;;;7.37;100.00;100482.94;5390671;26;20009;-79
2024/04/09 02:55:46;;;;;;;7.28;4.80;;;;;;;7.93;99.96;100496.38;5414753;26;19992;-79
2024/04/09 02:58:13;;;;;;;7.07;4.65;;;;;;;7.70;100.00;100458.56;5414061;26;20366;-79
2024/04/09 03:00:38;;;;;;;8.23;5.35;;;;;;;7.80;100.00;100485.63;5381249;26;20000;-79
2024/04/09 03:03:04;;;;;;;14.68;6.70;;;;;;;7.67;100.00;100474.88;5378577;26;19992;-79
2024/04/09 03:05:33;;;;;;;11.27;5.75;;;;;;;7.88;100.00;100493.47;5379228;26;20000;-79
2024/04/09 03:07:59;;;;;;;9.25;6.72;;;;;;;7.82;99.50;100468.47;5380867;26;20838;-79
2024/04/09 03:10:26;;;;;;;8.93;5.35;;;;;;;7.44;100.00;100481.19;5380789;26;20012;-79
2024/04/09 03:12:52;;;;;;;10.65;6.85;;;;;;;7.70;100.00;100491.25;5380256;26;20008;-79
2024/04/09 03:15:17;;;;;;;8.27;5.20;;;;;;;7.59;100.00;100489.91;5381148;26;20330;-79
2024/04/09 03:17:43;;;;;;;8.38;5.13;;;;;;;7.51;99.70;100492.69;5378751;26;20441;-79
2024/04/09 03:20:12;;;;;;;9.20;4.78;;;;;;;7.63;99.23;100479.75;5379785;26;20039;-79
2024/04/09 03:22:39;;;;;;;7.80;4.45;;;;;;;7.76;96.67;100468.44;5383631;26;20410;-79
2024/04/09 03:25:05;;;;;;;7.32;4.40;;;;;;;7.80;95.82;100485.63;5416435;26;19999;-78
2024/04/09 03:27:32;;;;;;;9.40;4.38;;;;;;;7.72;95.55;100481.25;5404972;26;19996;-79
2024/04/09 03:29:57;;;;;;;5.47;3.95;;;;;;;7.82;93.15;100483.59;5393386;26;19997;-79
2024/04/09 03:32:23;;;;;;;9.40;4.25;;;;;;;7.48;97.00;100493.09;5379460;26;20403;-78
2024/04/09 03:34:49;;;;;;;5.13;3.72;;;;;;;6.81;100.00;100476.38;5380317;26;20011;-79
2024/04/09 03:37:15;;;;;;;9.95;3.78;;;;;;;7.32;100.00;100493.31;5381164;26;20024;-79
2024/04/09 03:39:41;;;;;;;5.22;3.78;;;;;;;7.09;100.00;100486.31;5380124;26;20000;-79
2024/04/09 03:42:06;;;;;;;6.53;4.22;;;;;;;6.61;100.00;100489.34;5379743;26;20384;-79
2024/04/09 03:44:32;;;;;;;7.13;4.22;;;;;;;6.13;100.00;100477.41;5407445;26;20017;-79
2024/04/09 03:47:03;;;;;;;8.52;3.83;;;;;;;6.64;100.00;100493.47;5415621;26;20375;-79
2024/04/09 03:49:29;;;;;;;7.07;3.97;;;;;;;7.07;100.00;100495.44;5402710;26;20429;-79
2024/04/09 03:51:54;;;;;;;6.65;4.15;;;;;;;6.92;100.00;100503.41;5380299;26;20000;-79
2024/04/09 03:54:20;;;;;;;5.97;4.28;;;;;;;6.76;100.00;100478.75;5379510;26;20510;-79
2024/04/09 03:56:45;;;;;;;10.50;4.13;;;;;;;6.42;100.00;100488.06;5379952;26;20341;-79
2024/04/09 03:59:10;;;;;;;7.90;4.25;;;;;;;6.76;100.00;100510.56;5393923;26;20012;-78
2024/04/09 04:01:36;;;;;;;7.15;4.10;;;;;;;6.68;100.00;100515.97;5383649;26;20006;-80
2024/04/09 04:04:02;;;;;;;9.20;4.72;;;;;;;6.58;100.00;100496.88;5388487;26;20012;-79
2024/04/09 04:06:27;;;;;;;7.78;4.65;;;;;;;6.70;100.00;100506.00;5379660;26;19996;-79
2024/04/09 04:08:52;;;;;;;17.60;14.27;;;;;;;6.82;100.00;100509.00;5377877;26;20433;-79
2024/04/09 04:11:18;;;;;;;11.20;7.95;;;;;;;6.38;100.00;100521.22;5387391;26;20069;-79
2024/04/09 04:13:43;;;;;;;9.15;5.78;;;;;;;6.53;100.00;100507.97;5394821;26;20322;-79
2024/04/09 04:16:12;;;;;;;11.18;7.82;;;;;;;7.12;100.00;100524.91;5379895;26;20007;-79
2024/04/09 04:18:45;;;;;;;10.55;9.45;;;;;;;7.21;100.00;100490.13;5415165;26;20045;-79
2024/04/09 04:21:12;;;;;;;8.35;6.53;;;;;;;7.44;99.55;100528.97;5412037;26;20032;-79
2024/04/09 04:23:42;;;;;;;8.20;5.88;;;;;;;7.23;100.00;100527.91;5404643;26;20015;-79
2024/04/09 04:26:09;;;;;;;8.18;5.55;;;;;;;6.76;100.00;100521.19;5414970;26;20433;-79
2024/04/09 04:28:39;;;;;;;6.60;4.43;;;;;;;7.04;100.00;100510.72;5414684;26;20436;-79
2024/04/09 04:31:06;;;;;;;7.22;4.55;;;;;;;7.06;100.00;100526.44;5385035;26;20009;-79
2024/04/09 04:33:32;;;;;;;15.32;4.82;;;;;;;7.11;100.00;100528.53;5378956;26;20055;-79
2024/04/09 04:35:57;;;;;;;8.27;4.97;;;;;;;7.18;100.00;100514.38;5379508;26;21174;-79
2024/04/09 04:38:22;;;;;;;8.68;5.50;;;;;;;7.51;100.00;100529.84;5379465;26;20019;-79
2024/04/09 04:40:49;;;;;;;8.73;5.35;;;;;;;7.90;100.00;100535.75;5399968;26;20057;-79
2024/04/09 04:43:15;;;;;;;11.18;5.65;;;;;;;7.60;100.00;100544.66;5406690;26;20004;-79
2024/04/09 04:45:41;;;;;;;10.60;5.50;;;;;;;7.28;100.00;100515.91;5379318;26;20433;-79
2024/04/09 04:48:07;;;;;;;10.57;5.88;;;;;;;7.55;100.00;100541.72;5394802;26;19999;-79
2024/04/09 04:50:33;;;;;;;7.35;5.28;;;;;;;7.92;100.00;100545.16;5398411;26;20000;-79
2024/04/09 04:52:58;;;;;;;9.55;5.53;;;;;;;7.90;100.00;100523.28;5379619;26;19996;-80
2024/04/09 04:55:23;;;;;;;9.07;5.88;;;;;;;8.04;100.00;100535.69;5377742;26;19996;-80
2024/04/09 04:57:49;;;;;;;7.95;5.80;;;;;;;8.44;99.36;100562.63;5380157;26;20011;-80
2024/04/09 05:00:14;;;;;;;7.88;6.00;;;;;;;8.33;99.34;100533.88;5376729;26;20349;-81
2024/04/09 05:02:40;;;;;;;10.38;5.60;;;;;;;8.30;100.00;100544.91;5376448;26;20339;-80
2024/04/09 05:05:07;;;;;;;9.73;6.45;;;;;;;8.79;97.28;100548.56;5379676;26;20006;-79
2024/04/09 05:07:33;;;;;;;11.35;6.75;;;;;;;8.87;96.10;100556.41;5378276;26;20011;-80
2024/04/09 05:09:59;;;;;;;9.95;6.80;;;;;;;8.66;97.26;100525.34;5381315;26;19995;-80
2024/04/09 05:12:25;;;;;;;9.70;5.75;;;;;;;8.79;97.28;100508.69;5414403;26;20010;-80
2024/04/09 05:14:50;;;;;;;12.50;6.45;;;;;;;9.21;97.99;100542.25;5388829;26;20000;-81
2024/04/09 05:17:16;;;;;;;9.30;5.80;;;;;;;9.41;95.22;100525.53;5408558;26;20447;-80
2024/04/09 05:19:42;;;;;;;8.50;6.15;;;;;;;9.51;96.78;100528.63;5410429;26;20000;-80
2024/04/09 05:22:09;;;;;;;10.85;6.32;;;;;;;9.62;96.27;100541.38;5413022;26;19995;-80
2024/04/09 05:24:38;;;;;;;8.55;5.93;;;;;;;9.93;92.32;100540.00;5394185;26;20081;-80
2024/04/09 05:27:05;;;;;;;9.48;5.63;;;;;;;9.98;93.44;100532.19;5378024;26;20000;-80
2024/04/09 05:29:30;;;;;;;8.38;6.13;;;;;;;10.20;90.47;100532.03;5378670;26;20347;-80
2024/04/09 05:31:55;;;;;;;8.25;5.55;;;;;;;10.13;93.91;100549.84;5382006;26;20433;-80
2024/04/09 05:34:21;;;;;;;7.47;5.40;;;;;;;9.99;93.53;100523.19;5380683;26;20011;-80
2024/04/09 05:36:46;;;;;;;10.88;5.60;;;;;;;10.39;91.21;100539.22;5384817;26;20078;-80
2024/04/09 05:39:12;;;;;;;8.07;4.78;;;;;;;10.58;90.12;100536.72;5379597;26;20433;-79
2024/04/09 05:41:37;;;;;;;8.35;5.10;;;;;;;10.72;87.11;100524.19;5380900;26;20000;-80
2024/04/09 05:44:03;;;;;;;8.98;5.18;;;;;;;10.91;86.58;100549.19;5376108;26;20322;-80
2024/04/09 05:46:28;;;;;;;6.60;4.80;;;;;;;11.12;86.51;100538.25;5378902;26;19996;-79
2024/04/09 05:48:54;;;;;;;11.38;5.15;;;;;;;11.14;86.69;100540.72;5378746;26;20000;-80
2024/04/09 05:51:19;;;;;;;6.72;4.97;;;;;;;11.30;84.24;100528.72;5376029;26;20000;-80
2024/04/09 05:53:44;;;;;;;7.32;5.35;;;;;;;11.51;84.09;100541.78;5382310;26;20032;-80
2024/04/09 05:56:10;;;;;;;8.43;5.22;;;;;;;11.41;85.71;100541.44;5383870;26;20058;-80
2024/04/09 05:58:35;;;;;;;9.45;5.75;;;;;;;11.57;84.64;100530.25;5378498;26;20000;-80
2024/04/09 06:01:01;;;;;;;8.77;5.43;;;;;;;11.64;82.17;100509.66;5396747;26;20081;-79
2024/04/09 06:03:27;;;;;;;8.18;4.90;;;;;;;12.03;79.81;100528.34;5383552;26;20014;-80
2024/04/09 06:05:55;;;;;;;8.43;5.15;;;;;;;11.79;80.91;100511.19;5398451;26;19999;-80
2024/04/09 06:08:21;;;;;;;8.18;5.47;;;;;;;12.11;79.42;100524.59;5412235;26;20000;-80
2024/04/09 06:10:47;;;;;;;6.65;5.38;;;;;;;12.24;79.57;100535.19;5408544;26;20015;-80
2024/04/09 06:13:13;;;;;;;7.10;4.57;;;;;;;12.56;79.23;100543.13;5384045;26;20007;-80
2024/04/09 06:15:38;;;;;;;9.02;4.68;;;;;;;12.62;77.24;100547.59;5388336;26;19991;-81
2024/04/09 06:18:04;;;;;;;7.70;4.72;;;;;;;12.63;77.75;100527.84;5416830;26;19995;-80
2024/04/09 06:20:30;;;;;;;7.45;4.53;;;;;;;12.89;75.27;100525.91;5400431;26;20011;-79
2024/04/09 06:22:55;;;;;;;7.30;4.28;;;;;;;13.23;76.71;100538.69;5382445;26;19996;-80
2024/04/09 06:25:21;;;;;;;5.60;3.92;;;;;;;13.26;72.29;100535.59;5380804;26;20088;-80
2024/04/09 06:27:46;;;;;;;6.90;3.58;;;;;;;13.57;71.20;100539.13;5381038;26;19996;-79
2024/04/09 06:30:12;;;;;;;7.75;4.80;;;;;;;13.39;74.83;100544.53;5379766;26;20004;-79
2024/04/09 06:32:39;;;;;;;5.70;3.63;;;;;;;13.65;70.72;100546.84;5381052;26;19992;-79
2024/04/09 06:35:06;;;;;;;7.93;4.00;;;;;;;13.66;70.56;100532.41;5379369;26;20007;-80
2024/04/09 06:37:31;;;;;;;5.72;3.50;;;;;;;14.00;67.70;100545.34;5381074;26;20001;-80
2024/04/09 06:39:57;;;;;;;6.53;3.40;;;;;;;13.56;68.07;100520.59;5381091;26;20006;-80
2024/04/09 06:42:22;;;;;;;5.95;3.35;;;;;;;13.86;66.82;100526.75;5381231;26;20321;-80
2024/04/09 06:44:48;;;;;;;7.47;3.33;;;;;;;14.32;65.52;100540.47;5379914;26;20012;-80
2024/04/09 06:47:13;;;;;;;4.05;2.75;;;;;;;14.30;65.44;100564.03;5380710;26;20011;-80
2024/04/09 06:49:39;;;;;;;4.85;3.17;;;;;;;14.51;65.02;100548.44;5414637;26;20436;-79
2024/04/09 06:52:04;;;;;;;7.78;3.13;;;;;;;14.71;65.75;100557.00;5399987;26;19996;-80
2024/04/09 06:54:30;;;;;;;6.00;3.30;;;;;;;14.79;64.95;100539.69;5400138;26;20056;-80
2024/04/09 06:56:55;;;;;;;5.10;2.90;;;;;;;15.12;64.74;100549.81;5383716;26;20432;-80
2024/04/09 06:59:22;;;;;;;5.85;3.33;;;;;;;15.13;63.46;100561.38;5388208;26;20023;-81
2024/04/09 07:01:48;;;;;;;5.00;3.00;;;;;;;15.21;62.56;100552.94;5375665;26;20008;-80
2024/04/09 07:04:13;;;;;;;5.40;2.80;;;;;;;15.31;61.99;100546.97;5380464;26;20011;-80
2024/04/09 07:06:39;;;;;;;6.25;2.90;;;;;;;15.45;61.35;100535.69;5378634;26;20329;-79
2024/04/09 07:09:05;;;;;;;7.90;3.55;;;;;;;15.61;59.90;100547.56;5381243;26;19997;-79
2024/04/09 07:11:30;;;;;;;6.10;2.55;;;;;;;15.86;60.08;100549.09;5380692;26;19996;-80
2024/04/09 07:13:56;;;;;;;7.05;3.30;;;;;;;15.77;59.97;100558.59;5380873;26;20448;-80
2024/04/09 07:16:22;;;;;;;5.93;3.25;;;;;;;15.91;61.51;100551.88;5380266;26;20019;-79
2024/04/09 07:18:47;;;;;;;5.63;2.95;;;;;;;16.01;62.00;100532.41;5401173;26;19995;-80
2024/04/09 07:21:12;;;;;;;4.25;2.72;;;;;;;16.51;56.51;100561.22;5416195;26;20007;-80
2024/04/09 07:23:38;;;;;;;5.07;2.88;;;;;;;16.28;56.64;100535.25;5380672;26;20325;-79
2024/04/09 07:26:04;;;;;;;4.40;2.50;;;;;;;16.52;57.89;100549.34;5379055;26;19996;-80
2024/04/09 07:28:29;;;;;;;4.63;2.90;;;;;;;16.63;55.05;100544.94;5387418;26;19997;-79
2024/04/09 07:30:55;;;;;;;6.75;2.83;;;;;;;16.78;55.61;100566.72;5380844;26;20073;-80
2024/04/09 07:33:20;;;;;;;7.00;2.50;;;;;;;16.86;57.22;100547.47;5407602;26;19999;-80
2024/04/09 07:35:45;;;;;;;6.82;2.70;;;;;;;17.14;54.56;100518.72;5408070;26;20011;-80
2024/04/09 07:38:11;;;;;;;6.22;2.90;;;;;;;17.36;55.30;100548.34;5390785;26;20007;-79
2024/04/09 07:40:36;;;;;;;5.38;2.70;;;;;;;17.37;55.65;100535.69;5380573;26;19996;-79
2024/04/09 07:43:02;;;;;;;5.18;2.60;;;;;;;17.34;55.29;100514.63;5378885;26;19996;-79
2024/04/09 07:45:29;;;;;;;8.38;3.00;;;;;;;17.91;55.75;100534.91;5379796;26;20003;-79
2024/04/09 07:47:54;;;;;;;4.95;2.30;;;;;;;17.79;55.19;100533.16;5380198;26;20042;-80
2024/04/09 07:50:20;;;;;;;4.50;2.88;;;;;;;18.02;55.00;100537.47;5378541;26;20008;-79
2024/04/09 07:52:45;;;;;;;4.53;2.38;;;;;;;18.13;51.67;100526.75;5383307;26;20011;-80
2024/04/09 07:55:11;;;;;;;4.75;2.30;;;;;;;18.01;52.34;100530.41;5379897;26;20330;-80
2024/04/09 07:57:42;;;;;;;5.88;2.28;;;;;;;18.28;51.17;100540.34;5377933;26;20465;-80
2024/04/09 08:00:16;;;;;;;6.90;2.42;;;;;;;18.56;50.70;100530.28;5387403;26;20094;-80
2024/04/09 08:02:42;;;;;;;3.58;2.10;;;;;;;18.68;48.86;100523.59;5380210;26;20074;-79
2024/04/09 08:05:09;;;;;;;3.45;2.25;;;;;;;19.12;50.65;100513.56;5380357;26;20015;-80
2024/04/09 08:07:38;;;;;;;4.88;1.63;;;;;;;19.09;45.57;100523.03;5379592;26;20008;-79
2024/04/09 08:10:10;;;;;;;5.38;2.55;;;;;;;19.11;46.70;100491.13;5380294;26;20008;-79
2024/04/09 08:12:36;;;;;;;7.13;2.35;;;;;;;19.35;47.27;100520.38;5380317;26;20000;-80
2024/04/09 08:15:02;;;;;;;5.40;1.75;;;;;;;19.35;43.31;100515.81;5377777;26;20004;-80
2024/04/09 08:17:27;;;;;;;3.08;1.75;;;;;;;19.85;45.18;100494.53;5378777;26;20503;-78
2024/04/09 08:19:54;;;;;;;6.00;2.17;;;;;;;19.96;42.89;100501.59;5378080;26;20004;-80
2024/04/09 08:22:19;;;;;;;4.05;2.05;;;;;;;19.59;42.38;100478.25;5377731;26;20019;-80
2024/04/09 08:24:45;;;;;;;3.85;1.90;;;;;;;20.05;42.67;100483.72;5376251;26;20360;-77
2024/04/09 08:27:10;;;;;;;3.85;1.85;;;;;;;20.36;41.23;100486.38;5381565;26;20001;-80
2024/04/09 08:29:36;;;;;;;4.93;2.35;;;;;;;20.24;42.18;100485.84;5377811;26;20004;-80
2024/04/09 08:32:01;;;;;;;4.03;1.83;;;;;;;20.15;44.14;100469.38;5378370;26;20016;-80
2024/04/09 08:34:27;;;;;;;3.50;1.85;;;;;;;20.84;44.25;100486.84;5380125;26;20078;-80
2024/04/09 08:36:52;;;;;;;4.30;2.00;;;;;;;21.11;42.74;100491.06;5377571;26;20012;-78
2024/04/09 08:39:18;;;;;;;4.43;2.15;;;;;;;21.16;40.17;100492.91;5379454;26;20000;-78
2024/04/09 08:41:43;;;;;;;6.07;1.83;;;;;;;21.12;42.48;100492.66;5379882;26;20004;-78
2024/04/09 08:44:10;;;;;;;3.65;1.60;;;;;;;20.90;38.78;100482.19;5379660;26;20015;-78
2024/04/09 08:46:36;;;;;;;4.20;1.63;;;;;;;20.70;40.28;100469.53;5379558;26;20000;-78
2024/04/09 08:49:02;;;;;;;3.53;1.48;;;;;;;20.74;36.46;100486.88;5379879;26;20019;-79
2024/04/09 08:51:28;;;;;;;3.20;1.90;;;;;;;21.26;34.97;100488.25;5379543;26;20015;-78
2024/04/09 08:53:53;;;;;;;2.90;1.73;;;;;;;20.94;33.11;100480.53;5379333;26;20078;-78
2024/04/09 08:56:19;;;;;;;3.22;1.58;;;;;;;21.41;34.06;100478.38;5377052;26;20000;-78
2024/04/09 08:58:45;;;;;;;5.60;1.73;;;;;;;21.60;35.80;100476.69;5379578;26;20153;-79
2024/04/09 09:01:12;;;;;;;4.35;1.63;;;;;;;21.41;36.30;100467.53;5379427;26;20008;-78
2024/04/09 09:03:38;;;;;;;3.80;2.10;;;;;;;21.83;33.03;100458.03;5348807;26;20015;-79
2024/04/09 09:06:04;;;;;;;4.28;2.22;;;;;;;21.94;33.35;100454.13;5379464;26;20000;-79
2024/04/09 09:08:42;;;;;;;4.15;1.98;;;;;;;22.40;33.64;100459.16;5383947;26;20004;-78
2024/04/09 09:11:09;;;;;;;3.70;2.00;;;;;;;22.51;32.18;100461.75;5379378;26;20000;-78
2024/04/09 09:13:34;;;;;;;3.85;2.00;;;;;;;22.45;33.68;100450.97;5379406;26;20001;-78
2024/04/09 09:16:00;;;;;;;6.35;2.13;;;;;;;22.00;30.93;100463.84;5379219;26;20004;-78
2024/04/09 09:18:25;;;;;;;4.38;2.20;;;;;;;21.73;29.44;100448.06;5378725;26;20007;-78
2024/04/09 09:21:01;;;;;;;3.88;2.10;;;;;;;22.29;31.25;100448.69;5378948;26;20000;-77
2024/04/09 09:23:27;;;;;;;5.43;2.63;;;;;;;22.28;30.96;100442.44;5379085;26;20016;-78
2024/04/09 09:25:54;;;;;;;6.70;3.35;;;;;;;22.70;29.99;100453.66;5377587;26;20076;-78
2024/04/09 09:28:25;;;;;;;6.25;3.13;;;;;;;22.50;31.66;100432.97;5378568;26;20004;-79
2024/04/09 09:30:54;;;;;;;7.10;4.30;;;;;;;22.82;30.51;100451.31;5379443;26;20070;-79
2024/04/09 09:33:26;;;;;;;5.03;3.00;;;;;;;22.55;30.11;100422.03;5377406;26;20394;-77
2024/04/09 09:35:52;;;;;;;6.60;3.55;;;;;;;22.78;29.73;100440.25;5378986;26;20028;-77
2024/04/09 09:38:19;;;;;;;4.93;3.15;;;;;;;23.05;31.36;100433.38;5376802;26;20077;-80
2024/04/09 09:40:50;;;;;;;5.35;3.33;;;;;;;23.20;30.00;100441.31;5379072;26;20000;-77
2024/04/09 09:43:17;;;;;;;7.18;5.07;;;;;;;22.99;32.22;100429.09;5378756;26;20001;-78
2024/04/09 09:45:43;;;;;;;12.68;5.55;;;;;;;22.96;31.54;100419.59;5378862;26;20154;-78
2024/04/09 09:48:11;;;;;;;4.30;3.05;;;;;;;22.79;30.96;100411.94;5381926;26;20022;-76
2024/04/09 09:50:38;;;;;;;5.30;3.72;;;;;;;23.34;30.31;100435.16;5379568;26;20430;-78
2024/04/09 09:53:04;;;;;;;9.27;4.53;;;;;;;23.83;29.00;100409.34;5388428;26;20000;-79
2024/04/09 09:55:31;;;;;;;13.65;6.50;;;;;;;24.03;29.93;100430.75;5390671;26;20015;-78
2024/04/09 09:58:00;;;;;;;5.00;2.80;;;;;;;23.83;30.36;100421.03;5395915;26;20069;-79
2024/04/09 10:00:27;;;;;;;22.80;10.75;;;;;;;24.05;31.05;100412.19;5378552;26;20004;-79
2024/04/09 10:02:53;;;;;;;5.28;3.20;;;;;;;24.09;29.37;100423.31;5383261;26;20420;-79
2024/04/09 10:05:19;;;;;;;5.35;3.00;;;;;;;23.71;30.07;100422.59;5384068;26;20036;-79
2024/04/09 10:07:48;;;;;;;5.70;3.13;;;;;;;23.86;30.18;100425.88;5377890;26;20456;-80
2024/04/09 10:10:38;;;;;;;3.83;2.40;;;;;;;23.76;29.16;100423.31;5379963;26;20032;-79
2024/04/09 10:13:08;;;;;;;4.07;2.70;;;;;;;24.01;29.41;100383.13;5378136;26;20019;-80
2024/04/09 10:15:34;;;;;;;4.50;3.15;;;;;;;24.80;29.42;100410.16;5376681;26;20011;-79
2024/04/09 10:18:06;;;;;;;3.95;2.50;;;;;;;25.14;28.34;100399.91;5397484;26;20005;-80
2024/04/09 10:20:36;;;;;;;4.38;2.67;;;;;;;24.83;27.78;100387.75;5378624;26;20012;-79
2024/04/09 10:23:05;;;;;;;3.75;2.38;;;;;;;25.00;28.66;100405.38;5378101;26;20004;-80
2024/04/09 10:25:39;;;;;;;5.38;2.15;;;;;;;24.25;30.50;100386.47;5378391;26;20000;-79
2024/04/09 10:28:08;;;;;;;3.42;1.90;;;;;;;24.26;27.99;100398.97;5375873;26;20212;-78
2024/04/09 10:30:37;;;;;;;4.65;2.30;;;;;;;24.50;28.58;100410.81;5378335;26;20012;-78
2024/04/09 10:33:04;;;;;;;4.55;1.90;;;;;;;25.25;27.37;100383.00;5388006;26;20076;-77
2024/04/09 10:35:31;;;;;;;5.97;2.50;;;;;;;25.01;28.97;100391.44;5388330;26;20004;-79
2024/04/09 10:37:58;;;;;;;4.00;1.83;;;;;;;25.04;28.83;100374.44;5377403;26;20009;-78
2024/04/09 10:40:24;;;;;;;4.32;1.95;;;;;;;24.99;28.19;100376.50;5377975;26;20008;-78
2024/04/09 10:42:52;;;;;;;3.28;1.58;;;;;;;24.61;28.28;100393.94;5377921;26;20000;-79
2024/04/09 10:45:18;;;;;;;6.18;2.20;;;;;;;24.84;27.18;100372.19;5377507;26;20477;-79
2024/04/09 10:47:44;;;;;;;4.43;1.73;;;;;;;24.98;28.85;100380.34;5395440;26;20104;-78
2024/04/09 10:50:10;;;;;;;3.78;1.80;;;;;;;24.84;26.82;100378.44;5377811;26;20015;-79
2024/04/09 10:52:36;;;;;;;2.75;1.88;;;;;;;25.75;25.79;100373.03;5411263;26;20012;-80
2024/04/09 10:55:12;;;;;;;4.55;1.67;;;;;;;25.62;25.82;100367.34;5398852;26;20086;-80
2024/04/09 10:57:39;;;;;;;3.05;1.70;;;;;;;25.92;25.55;100383.28;5377106;26;20032;-79
2024/04/09 11:00:09;;;;;;;3.75;1.70;;;;;;;26.35;26.42;100380.69;5377780;26;20016;-81
2024/04/09 11:02:36;;;;;;;4.70;1.45;;;;;;;26.68;24.52;100363.91;5378620;26;20004;-79
2024/04/09 11:05:03;;;;;;;3.72;1.77;;;;;;;27.10;26.49;100361.50;5380393;26;20004;-79
2024/04/09 11:07:32;;;;;;;4.38;1.67;;;;;;;26.99;25.38;100377.47;5380477;26;20036;-78
2024/04/09 11:09:59;;;;;;;2.75;1.90;;;;;;;25.75;25.65;100373.03;5383199;26;20073;-79
2024/04/09 11:12:24;;;;;;;3.67;1.60;;;;;;;25.22;26.42;100348.13;5380446;26;20469;-78
2024/04/09 11:14:50;;;;;;;2.42;1.55;;;;;;;25.23;26.98;100354.41;5380285;26;20090;-79
2024/04/09 11:17:17;;;;;;;2.50;1.58;;;;;;;26.23;26.23;100361.38;5373817;26;20449;-78
2024/04/09 11:19:42;;;;;;;2.10;1.50;;;;;;;25.95;25.41;100358.88;5379265;26;20087;-79
2024/04/09 11:22:08;;;;;;;5.07;1.63;;;;;;;26.20;25.38;100351.88;5380779;26;20440;-79
2024/04/09 11:24:36;;;;;;;3.00;1.63;;;;;;;26.06;26.54;100345.72;5384142;26;20334;-79